createdAt,value
2023-04-30T00:00:29.339Z,11.60
2023-04-30T00:03:51.016Z,11.60
2023-04-30T00:07:12.679Z,11.60
2023-04-30T00:10:34.364Z,11.60
2023-04-30T00:13:55.942Z,11.60
2023-04-30T00:17:18.879Z,11.50
2023-04-30T00:20:40.470Z,11.50
2023-04-30T00:24:02.110Z,11.50
2023-04-30T00:27:23.667Z,11.50
2023-04-30T00:30:45.277Z,11.40
2023-04-30T00:34:08.217Z,11.40
2023-04-30T00:37:29.780Z,11.40
2023-04-30T00:40:51.965Z,11.30
2023-04-30T00:44:13.534Z,11.30
2023-04-30T00:47:35.196Z,11.20
2023-04-30T00:50:58.188Z,11.20
2023-04-30T00:54:20.186Z,11.20
2023-04-30T00:57:41.780Z,11.10
2023-04-30T01:01:03.860Z,11.10
2023-04-30T01:04:25.498Z,11.00
2023-04-30T01:07:48.717Z,10.90
2023-04-30T01:11:16.776Z,10.90
2023-04-30T01:14:45.532Z,10.90
2023-04-30T01:18:09.456Z,10.80
2023-04-30T01:21:32.544Z,10.80
2023-04-30T01:25:07.198Z,10.90
2023-04-30T01:28:31.461Z,10.90
2023-04-30T01:31:54.554Z,10.90
2023-04-30T01:35:17.433Z,10.90
2023-04-30T01:38:52.163Z,10.90
2023-04-30T01:42:17.184Z,10.90
2023-04-30T01:45:48.327Z,10.90
2023-04-30T01:49:16.808Z,10.80
2023-04-30T01:52:40.865Z,10.80
2023-04-30T01:56:04.468Z,10.80
2023-04-30T01:59:26.434Z,10.80
2023-04-30T02:02:49.503Z,10.80
2023-04-30T02:06:11.619Z,10.80
2023-04-30T02:09:34.792Z,10.80
2023-04-30T02:12:57.747Z,10.80
2023-04-30T02:16:19.373Z,10.80
2023-04-30T02:19:42.349Z,10.80
2023-04-30T02:23:03.935Z,10.80
2023-04-30T02:26:25.968Z,10.70
2023-04-30T02:29:48.212Z,10.70
2023-04-30T02:33:10.147Z,10.70
2023-04-30T02:36:33.210Z,10.70
2023-04-30T02:39:55.044Z,10.70
2023-04-30T02:43:16.823Z,10.60
2023-04-30T02:46:38.406Z,10.60
2023-04-30T02:49:59.994Z,10.60
2023-04-30T02:53:23.128Z,10.60
2023-04-30T02:56:44.953Z,10.60
2023-04-30T03:00:07.173Z,10.60
2023-04-30T03:03:28.852Z,10.50
2023-04-30T03:06:50.484Z,10.50
2023-04-30T03:10:13.415Z,10.40
2023-04-30T03:13:35.143Z,10.40
2023-04-30T03:16:56.692Z,10.40
2023-04-30T03:20:18.338Z,10.30
2023-04-30T03:23:39.951Z,10.30
2023-04-30T03:27:02.899Z,10.20
2023-04-30T03:30:24.488Z,10.20
2023-04-30T03:33:46.255Z,10.10
2023-04-30T03:37:07.963Z,10.10
2023-04-30T03:40:29.550Z,10.00
2023-04-30T03:43:52.464Z,9.90
2023-04-30T03:47:14.223Z,9.90
2023-04-30T03:50:36.035Z,9.80
2023-04-30T03:53:57.795Z,9.80
2023-04-30T03:57:19.997Z,9.80
2023-04-30T04:00:46.755Z,9.80
2023-04-30T04:04:10.094Z,9.80
2023-04-30T04:07:33.405Z,9.80
2023-04-30T04:10:55.192Z,9.80
2023-04-30T04:14:16.767Z,9.80
2023-04-30T04:17:39.791Z,9.80
2023-04-30T04:21:02.748Z,9.90
2023-04-30T04:24:24.768Z,9.90
2023-04-30T04:27:46.798Z,9.90
2023-04-30T04:31:08.376Z,9.90
2023-04-30T04:34:31.300Z,9.90
2023-04-30T04:37:54.226Z,9.90
2023-04-30T04:41:17.429Z,9.90
2023-04-30T04:44:39.840Z,10.00
2023-04-30T04:48:02.276Z,10.00
2023-04-30T04:51:27.284Z,10.10
2023-04-30T04:54:51.509Z,10.20
2023-04-30T04:58:16.021Z,10.30
2023-04-30T05:01:38.572Z,10.40
2023-04-30T05:05:01.203Z,10.50
2023-04-30T05:08:25.658Z,10.60
2023-04-30T05:11:48.795Z,10.70
2023-04-30T05:15:10.468Z,10.80
2023-04-30T05:18:32.412Z,11.00
2023-04-30T05:21:55.694Z,11.20
2023-04-30T05:25:18.661Z,11.30
2023-04-30T05:28:41.327Z,11.40
2023-04-30T05:32:03.245Z,11.40
2023-04-30T05:35:25.783Z,11.60
2023-04-30T05:38:47.551Z,11.70
2023-04-30T05:42:10.452Z,11.90
2023-04-30T05:45:32.022Z,12.00
2023-04-30T05:48:53.607Z,11.90
2023-04-30T05:52:16.276Z,12.00
2023-04-30T05:55:41.304Z,12.30
2023-04-30T05:59:05.140Z,12.50
2023-04-30T06:02:26.902Z,12.40
2023-04-30T06:05:48.633Z,12.50
2023-04-30T06:09:10.300Z,12.50
2023-04-30T06:12:31.970Z,12.60
2023-04-30T06:15:56.785Z,12.70
2023-04-30T06:19:18.472Z,12.80
2023-04-30T06:22:40.070Z,12.90
2023-04-30T06:26:01.718Z,13.20
2023-04-30T06:29:23.292Z,13.50
2023-04-30T06:32:46.214Z,13.60
2023-04-30T06:36:07.841Z,13.80
2023-04-30T06:39:29.572Z,14.20
2023-04-30T06:42:52.769Z,14.10
2023-04-30T06:46:15.379Z,14.10
2023-04-30T06:49:38.555Z,14.20
2023-04-30T06:53:00.164Z,14.30
2023-04-30T06:56:21.735Z,14.30
2023-04-30T06:59:43.352Z,14.70
2023-04-30T07:03:06.231Z,15.00
2023-04-30T07:06:29.539Z,15.20
2023-04-30T07:09:51.873Z,16.00
2023-04-30T07:13:13.540Z,16.50
2023-04-30T07:16:35.152Z,17.10
2023-04-30T07:19:56.961Z,18.50
2023-04-30T07:23:20.073Z,20.00
2023-04-30T07:26:41.670Z,20.10
2023-04-30T07:30:04.040Z,20.70
2023-04-30T07:33:25.741Z,21.20
2023-04-30T07:36:48.010Z,21.60
2023-04-30T07:40:13.273Z,21.00
2023-04-30T07:43:36.770Z,21.20
2023-04-30T07:47:01.121Z,21.50
2023-04-30T07:50:22.872Z,21.80
2023-04-30T07:53:44.787Z,22.10
2023-04-30T07:57:07.715Z,22.20
2023-04-30T08:00:29.480Z,21.80
2023-04-30T08:03:51.234Z,21.30
2023-04-30T08:07:13.014Z,20.80
2023-04-30T08:10:34.568Z,21.10
2023-04-30T08:13:57.525Z,21.40
2023-04-30T08:17:19.103Z,21.00
2023-04-30T08:20:41.750Z,21.40
2023-04-30T08:24:04.216Z,20.10
2023-04-30T08:27:26.953Z,18.60
2023-04-30T08:30:50.832Z,17.80
2023-04-30T08:34:12.847Z,17.90
2023-04-30T08:37:34.660Z,19.30
2023-04-30T08:40:59.637Z,19.90
2023-04-30T08:44:22.015Z,19.70
2023-04-30T08:47:45.141Z,18.90
2023-04-30T08:51:06.800Z,18.50
2023-04-30T08:54:30.747Z,19.80
2023-04-30T08:57:53.048Z,20.20
2023-04-30T09:01:15.879Z,20.00
2023-04-30T09:04:39.408Z,20.80
2023-04-30T09:08:04.074Z,20.20
2023-04-30T09:11:27.007Z,19.80
2023-04-30T09:14:58.019Z,19.30
2023-04-30T09:18:19.735Z,18.70
2023-04-30T09:21:42.987Z,18.00
2023-04-30T09:25:04.943Z,17.60
2023-04-30T09:28:26.809Z,17.20
2023-04-30T09:31:48.694Z,17.00
2023-04-30T09:35:28.446Z,16.70
2023-04-30T09:38:51.645Z,16.70
2023-04-30T09:42:13.299Z,16.40
2023-04-30T09:45:44.649Z,16.30
2023-04-30T09:49:07.122Z,16.30
2023-04-30T09:52:28.963Z,16.30
2023-04-30T09:55:52.062Z,16.50
2023-04-30T09:59:14.428Z,16.60
2023-04-30T10:02:37.048Z,16.80
2023-04-30T10:06:00.535Z,16.90
2023-04-30T10:09:24.255Z,16.90
2023-04-30T10:12:50.314Z,16.90
2023-04-30T10:16:13.771Z,16.80
2023-04-30T10:19:39.212Z,16.80
2023-04-30T10:23:01.124Z,16.80
2023-04-30T10:26:22.769Z,16.80
2023-04-30T10:29:46.016Z,16.90
2023-04-30T10:33:14.288Z,17.00
2023-04-30T10:36:39.551Z,16.90
2023-04-30T10:40:01.185Z,17.10
2023-04-30T10:43:23.861Z,17.00
2023-04-30T10:46:47.210Z,17.30
2023-04-30T10:50:09.296Z,17.10
2023-04-30T10:53:31.588Z,17.10
2023-04-30T10:56:53.476Z,17.00
2023-04-30T11:00:18.662Z,17.00
2023-04-30T11:03:42.554Z,16.90
2023-04-30T11:07:13.150Z,17.00
2023-04-30T11:10:36.595Z,17.20
2023-04-30T11:13:59.438Z,17.20
2023-04-30T11:17:22.199Z,17.20
2023-04-30T11:20:50.384Z,17.00
2023-04-30T11:24:12.675Z,17.10
2023-04-30T11:27:34.719Z,17.20
2023-04-30T11:30:56.814Z,17.20
2023-04-30T11:34:19.877Z,17.30
2023-04-30T11:37:43.321Z,17.50
2023-04-30T11:41:05.387Z,17.60
2023-04-30T11:44:27.176Z,17.60
2023-04-30T11:47:49.850Z,17.40
2023-04-30T11:51:14.902Z,17.20
2023-04-30T11:54:37.975Z,17.40
2023-04-30T11:57:59.627Z,17.40
2023-04-30T12:01:21.691Z,17.20
2023-04-30T12:04:43.401Z,17.50
2023-04-30T12:08:05.688Z,17.40
2023-04-30T12:11:29.307Z,17.60
2023-04-30T12:14:53.533Z,17.70
2023-04-30T12:18:15.128Z,17.80
2023-04-30T12:21:36.980Z,17.90
2023-04-30T12:24:59.288Z,17.70
2023-04-30T12:28:23.165Z,17.70
2023-04-30T12:31:45.226Z,17.50
2023-04-30T12:35:07.250Z,17.70
2023-04-30T12:38:28.840Z,17.90
2023-04-30T12:41:50.425Z,17.80
2023-04-30T12:45:13.873Z,17.80
2023-04-30T12:48:43.323Z,18.00
2023-04-30T12:52:06.210Z,18.00
2023-04-30T12:55:27.779Z,17.90
2023-04-30T12:58:49.360Z,17.90
2023-04-30T13:02:13.715Z,17.80
2023-04-30T13:05:35.400Z,17.80
2023-04-30T13:08:58.967Z,17.90
2023-04-30T13:12:20.797Z,17.90
2023-04-30T13:15:42.395Z,17.80
2023-04-30T13:19:05.320Z,17.90
2023-04-30T13:22:26.929Z,17.70
2023-04-30T13:25:48.510Z,17.60
2023-04-30T13:29:10.106Z,17.40
2023-04-30T13:32:31.816Z,17.50
2023-04-30T13:35:54.794Z,17.70
2023-04-30T13:39:16.394Z,18.00
2023-04-30T13:42:38.438Z,17.80
2023-04-30T13:46:00.068Z,17.70
2023-04-30T13:49:21.675Z,17.80
2023-04-30T13:52:44.599Z,17.70
2023-04-30T13:56:06.389Z,17.50
2023-04-30T13:59:28.001Z,17.60
2023-04-30T14:02:49.679Z,17.70
2023-04-30T14:06:11.362Z,17.70
2023-04-30T14:09:34.312Z,17.50
2023-04-30T14:12:55.897Z,17.50
2023-04-30T14:16:17.542Z,17.50
2023-04-30T14:19:39.145Z,17.30
2023-04-30T14:23:02.739Z,17.30
2023-04-30T14:26:25.900Z,17.10
2023-04-30T14:29:47.488Z,17.00
2023-04-30T14:33:09.134Z,17.10
2023-04-30T14:36:30.966Z,17.10
2023-04-30T14:39:52.881Z,17.30
2023-04-30T14:43:16.309Z,17.50
2023-04-30T14:46:38.000Z,17.70
2023-04-30T14:49:59.625Z,17.70
2023-04-30T14:53:21.213Z,17.60
2023-04-30T14:56:48.568Z,17.70
2023-04-30T15:00:13.933Z,17.70
2023-04-30T15:03:35.734Z,17.50
2023-04-30T15:06:57.748Z,17.50
2023-04-30T15:10:20.138Z,17.40
2023-04-30T15:13:44.440Z,17.40
2023-04-30T15:17:07.516Z,17.40
2023-04-30T15:20:29.262Z,17.40
2023-04-30T15:23:51.365Z,17.50
2023-04-30T15:27:13.064Z,17.50
2023-04-30T15:30:34.765Z,17.30
2023-04-30T15:33:57.836Z,17.10
2023-04-30T15:37:19.451Z,17.10
2023-04-30T15:40:41.029Z,17.10
2023-04-30T15:44:02.589Z,17.10
2023-04-30T15:47:24.585Z,17.00
2023-04-30T15:50:47.537Z,17.00
2023-04-30T15:54:09.125Z,17.00
2023-04-30T15:57:30.732Z,17.00
2023-04-30T16:00:52.307Z,16.90
2023-04-30T16:04:14.056Z,16.80
2023-04-30T16:07:37.504Z,16.80
2023-04-30T16:10:59.590Z,16.90
2023-04-30T16:14:21.186Z,16.90
2023-04-30T16:17:42.793Z,16.90
2023-04-30T16:21:04.689Z,16.80
2023-04-30T16:24:27.774Z,16.80
2023-04-30T16:27:49.520Z,16.50
2023-04-30T16:31:11.090Z,16.40
2023-04-30T16:34:32.676Z,16.40
2023-04-30T16:37:54.348Z,16.30
2023-04-30T16:41:17.349Z,16.30
2023-04-30T16:44:38.926Z,16.30
2023-04-30T16:48:00.614Z,16.20
2023-04-30T16:51:22.254Z,16.10
2023-04-30T16:54:44.154Z,16.00
2023-04-30T16:58:07.190Z,16.00
2023-04-30T17:01:30.209Z,15.90
2023-04-30T17:04:52.159Z,15.90
2023-04-30T17:08:13.760Z,15.90
2023-04-30T17:11:35.344Z,15.80
2023-04-30T17:14:58.303Z,15.80
2023-04-30T17:18:19.992Z,15.70
2023-04-30T17:21:41.990Z,15.70
2023-04-30T17:25:03.643Z,15.60
2023-04-30T17:28:25.213Z,15.60
2023-04-30T17:31:48.315Z,15.50
2023-04-30T17:35:09.974Z,15.40
2023-04-30T17:38:31.622Z,15.40
2023-04-30T17:41:53.223Z,15.30
2023-04-30T17:45:14.924Z,15.20
2023-04-30T17:48:38.000Z,15.10
2023-04-30T17:51:59.578Z,15.00
2023-04-30T17:55:21.316Z,15.00
2023-04-30T17:58:42.916Z,14.90
2023-04-30T18:02:04.527Z,14.80
2023-04-30T18:05:27.564Z,14.70
2023-04-30T18:08:49.153Z,14.60
2023-04-30T18:12:10.778Z,14.50
2023-04-30T18:15:32.422Z,14.40
2023-04-30T18:18:54.012Z,14.30
2023-04-30T18:22:17.004Z,14.10
2023-04-30T18:25:38.821Z,14.10
2023-04-30T18:29:00.476Z,14.00
2023-04-30T18:32:22.212Z,13.90
2023-04-30T18:35:43.823Z,13.80
2023-04-30T18:39:06.710Z,13.80
2023-04-30T18:42:28.284Z,13.60
2023-04-30T18:45:49.992Z,13.60
2023-04-30T18:49:11.597Z,13.50
2023-04-30T18:52:33.261Z,13.40
2023-04-30T18:55:57.456Z,13.30
2023-04-30T18:59:19.046Z,13.20
2023-04-30T19:02:40.751Z,13.00
2023-04-30T19:06:02.515Z,12.80
2023-04-30T19:09:24.159Z,12.70
2023-04-30T19:12:47.090Z,12.60
2023-04-30T19:16:08.747Z,12.50
2023-04-30T19:19:30.381Z,12.40
2023-04-30T19:22:52.414Z,12.40
2023-04-30T19:26:15.584Z,12.30
2023-04-30T19:29:38.979Z,12.30
2023-04-30T19:33:01.461Z,12.10
2023-04-30T19:36:23.166Z,12.00
2023-04-30T19:39:44.879Z,11.90
2023-04-30T19:43:06.480Z,11.90
2023-04-30T19:46:29.511Z,11.80
2023-04-30T19:49:51.177Z,11.70
2023-04-30T19:53:13.923Z,11.60
2023-04-30T19:56:35.532Z,11.50
2023-04-30T19:59:57.364Z,11.50
2023-04-30T20:03:21.561Z,11.40
2023-04-30T20:06:43.398Z,11.40
2023-04-30T20:10:05.544Z,11.40
2023-04-30T20:13:27.548Z,11.30
2023-04-30T20:16:49.280Z,11.30
2023-04-30T20:20:12.667Z,11.30
2023-04-30T20:23:34.384Z,11.20
2023-04-30T20:26:56.039Z,11.20
2023-04-30T20:30:17.724Z,11.10
2023-04-30T20:33:39.307Z,11.10
2023-04-30T20:37:02.624Z,11.10
2023-04-30T20:40:25.229Z,11.00
2023-04-30T20:43:46.811Z,11.00
2023-04-30T20:47:08.424Z,11.00
2023-04-30T20:50:30.108Z,11.00
2023-04-30T20:53:53.069Z,11.00
2023-04-30T20:57:14.667Z,11.00
2023-04-30T21:00:36.262Z,11.00
2023-04-30T21:03:57.885Z,11.00
2023-04-30T21:07:19.452Z,11.00
2023-04-30T21:10:42.382Z,10.90
2023-04-30T21:14:03.951Z,10.90
2023-04-30T21:17:25.593Z,10.90
2023-04-30T21:20:47.168Z,10.90
2023-04-30T21:24:08.759Z,10.80
2023-04-30T21:27:32.167Z,10.80
2023-04-30T21:30:53.860Z,10.80
2023-04-30T21:34:15.554Z,10.70
2023-04-30T21:37:37.137Z,10.70
2023-04-30T21:40:58.738Z,10.60
2023-04-30T21:44:21.657Z,10.50
2023-04-30T21:47:43.314Z,10.50
2023-04-30T21:51:10.588Z,10.40
2023-04-30T21:54:32.268Z,10.40
2023-04-30T21:57:53.897Z,10.30
2023-04-30T22:01:16.869Z,10.30
2023-04-30T22:04:38.589Z,10.20
2023-04-30T22:08:00.390Z,10.20
2023-04-30T22:11:22.120Z,10.20
2023-04-30T22:14:43.792Z,10.20
2023-04-30T22:18:06.782Z,10.10
2023-04-30T22:21:28.416Z,10.20
2023-04-30T22:24:50.120Z,10.10
2023-04-30T22:28:11.720Z,10.10
2023-04-30T22:31:33.405Z,10.10
2023-04-30T22:34:56.388Z,10.00
2023-04-30T22:38:17.967Z,10.00
2023-04-30T22:41:39.521Z,10.10
2023-04-30T22:45:01.262Z,10.10
2023-04-30T22:48:23.026Z,10.10
2023-04-30T22:51:45.957Z,10.10
2023-04-30T22:55:08.102Z,10.00
2023-04-30T22:58:29.657Z,10.00
2023-04-30T23:01:51.268Z,10.00
2023-04-30T23:05:12.880Z,10.00
2023-04-30T23:08:35.803Z,10.00
2023-04-30T23:11:57.386Z,10.00
2023-04-30T23:15:19.025Z,9.90
2023-04-30T23:18:40.562Z,9.90
2023-04-30T23:22:02.150Z,9.90
2023-04-30T23:25:25.090Z,9.90
2023-04-30T23:28:46.668Z,9.90
2023-04-30T23:32:08.348Z,9.80
2023-04-30T23:35:29.955Z,9.90
2023-04-30T23:38:51.545Z,9.90
2023-04-30T23:42:14.498Z,9.90
2023-04-30T23:45:36.108Z,9.90
2023-04-30T23:48:57.685Z,9.90
2023-04-30T23:52:19.276Z,9.80
2023-04-30T23:55:41.088Z,9.80
2023-04-30T23:59:04.029Z,9.70
